createdAt,value
2018-03-11T00:00:50.684Z,74.50
2018-03-11T00:03:19.750Z,74.40
2018-03-11T00:05:49.578Z,72.90
2018-03-11T00:08:19.454Z,72.80
2018-03-11T00:10:48.518Z,72.80
2018-03-11T00:13:17.581Z,72.80
2018-03-11T00:15:46.690Z,72.80
2018-03-11T00:18:16.522Z,74.20
2018-03-11T00:20:46.366Z,75.20
2018-03-11T00:23:15.446Z,75.10
2018-03-11T00:25:44.507Z,74.70
2018-03-11T00:28:14.406Z,73.60
2018-03-11T00:30:43.465Z,73.60
2018-03-11T00:33:12.547Z,74.00
2018-03-11T00:35:42.425Z,75.50
2018-03-11T00:38:11.486Z,75.30
2018-03-11T00:40:41.373Z,75.30
2018-03-11T00:43:10.467Z,75.30
2018-03-11T00:45:39.535Z,75.00
2018-03-11T00:48:09.365Z,74.40
2018-03-11T00:50:39.198Z,75.40
2018-03-11T00:53:08.363Z,75.40
2018-03-11T00:55:38.193Z,75.70
2018-03-11T00:58:07.269Z,75.70
2018-03-11T01:00:36.333Z,75.80
2018-03-11T01:03:05.461Z,76.20
2018-03-11T01:05:35.292Z,75.20
2018-03-11T01:08:05.159Z,74.70
2018-03-11T01:10:34.220Z,74.70
2018-03-11T01:13:04.049Z,74.80
2018-03-11T01:15:34.213Z,74.60
2018-03-11T01:18:03.269Z,74.60
2018-03-11T01:20:32.339Z,74.30
2018-03-11T01:23:01.426Z,73.20
2018-03-11T01:25:31.310Z,73.90
2018-03-11T01:28:00.374Z,73.90
2018-03-11T01:30:29.433Z,75.20
2018-03-11T01:32:58.530Z,74.50
2018-03-11T01:35:27.598Z,74.70
2018-03-11T01:37:56.661Z,74.30
2018-03-11T01:40:25.724Z,73.70
2018-03-11T01:42:54.814Z,73.50
2018-03-11T01:45:24.780Z,73.20
2018-03-11T01:47:53.871Z,73.10
2018-03-11T01:50:23.093Z,73.30
2018-03-11T01:53:14.858Z,73.20
2018-03-11T01:55:44.233Z,73.20
2018-03-11T01:58:14.067Z,72.60
2018-03-11T02:00:43.149Z,72.60
2018-03-11T02:03:12.218Z,72.20
2018-03-11T02:05:41.305Z,72.50
2018-03-11T02:08:10.370Z,71.80
2018-03-11T02:10:39.490Z,71.90
2018-03-11T02:13:08.626Z,72.10
2018-03-11T02:15:37.745Z,72.30
2018-03-11T02:18:06.917Z,72.30
2018-03-11T02:20:35.909Z,72.30
2018-03-11T02:23:04.990Z,71.00
2018-03-11T02:25:34.054Z,71.80
2018-03-11T02:28:03.886Z,71.70
2018-03-11T02:30:33.760Z,69.80
2018-03-11T02:33:02.824Z,69.80
2018-03-11T02:35:32.682Z,71.90
2018-03-11T02:38:01.763Z,71.80
2018-03-11T02:40:31.591Z,71.70
2018-03-11T02:43:01.467Z,70.60
2018-03-11T02:45:30.530Z,70.60
2018-03-11T02:48:00.367Z,71.80
2018-03-11T02:50:29.475Z,71.70
2018-03-11T02:52:59.306Z,71.60
2018-03-11T02:55:29.133Z,71.50
2018-03-11T02:57:58.965Z,71.20
2018-03-11T03:00:28.033Z,71.20
2018-03-11T03:02:57.088Z,71.00
2018-03-11T03:05:26.150Z,71.80
2018-03-11T03:07:55.215Z,71.30
2018-03-11T03:10:24.278Z,71.10
2018-03-11T03:12:53.737Z,70.40
2018-03-11T03:15:22.806Z,69.80
2018-03-11T03:17:51.899Z,69.80
2018-03-11T03:20:20.998Z,69.70
2018-03-11T03:22:50.066Z,70.70
2018-03-11T03:25:19.894Z,71.20
2018-03-11T03:27:48.958Z,71.20
2018-03-11T03:30:18.023Z,73.20
2018-03-11T03:32:47.103Z,72.70
2018-03-11T03:35:16.933Z,69.90
2018-03-11T03:37:46.762Z,70.20
2018-03-11T03:40:16.590Z,70.70
2018-03-11T03:42:46.420Z,70.70
2018-03-11T03:45:16.278Z,70.80
2018-03-11T03:47:45.345Z,70.80
2018-03-11T03:50:14.463Z,70.90
2018-03-11T03:52:44.306Z,71.30
2018-03-11T03:55:14.169Z,72.50
2018-03-11T03:57:43.240Z,72.40
2018-03-11T04:00:13.065Z,73.40
2018-03-11T04:02:42.893Z,74.40
2018-03-11T04:05:12.727Z,76.10
2018-03-11T04:07:41.790Z,76.00
2018-03-11T04:10:11.623Z,74.20
2018-03-11T04:12:40.689Z,74.20
2018-03-11T04:15:09.754Z,73.30
2018-03-11T04:17:39.111Z,72.20
2018-03-11T04:20:08.179Z,71.90
2018-03-11T04:22:37.262Z,70.00
2018-03-11T04:25:06.325Z,69.40
2018-03-11T04:27:36.158Z,68.80
2018-03-11T04:30:05.221Z,68.80
2018-03-11T04:32:34.384Z,68.10
2018-03-11T04:35:03.474Z,67.20
2018-03-11T04:37:33.298Z,68.20
2018-03-11T04:40:03.166Z,67.80
2018-03-11T04:42:32.230Z,67.80
2018-03-11T04:45:01.293Z,67.40
2018-03-11T04:47:30.388Z,68.00
2018-03-11T04:49:59.530Z,67.60
2018-03-11T04:52:28.594Z,68.50
2018-03-11T04:54:57.650Z,68.10
2018-03-11T04:57:26.714Z,69.30
2018-03-11T04:59:55.834Z,68.00
2018-03-11T05:02:24.896Z,67.20
2018-03-11T05:04:53.968Z,67.10
2018-03-11T05:07:23.106Z,67.10
2018-03-11T05:09:52.213Z,67.10
2018-03-11T05:12:21.283Z,66.30
2018-03-11T05:14:50.366Z,66.90
2018-03-11T05:17:20.199Z,66.90
2018-03-11T05:19:50.030Z,66.90
2018-03-11T05:22:19.962Z,67.10
2018-03-11T05:24:49.795Z,67.60
2018-03-11T05:27:18.854Z,67.60
2018-03-11T05:29:48.685Z,67.60
2018-03-11T05:32:17.787Z,67.60
2018-03-11T05:34:46.854Z,67.30
2018-03-11T05:37:15.921Z,67.10
2018-03-11T05:39:44.998Z,67.70
2018-03-11T05:42:14.057Z,67.60
2018-03-11T05:44:43.923Z,67.10
2018-03-11T05:47:13.021Z,66.70
2018-03-11T05:49:42.083Z,66.40
2018-03-11T05:52:11.158Z,66.30
2018-03-11T05:54:40.990Z,66.30
2018-03-11T05:57:10.087Z,66.60
2018-03-11T05:59:39.177Z,67.20
2018-03-11T06:02:09.001Z,66.90
2018-03-11T06:04:39.093Z,66.80
2018-03-11T06:07:08.154Z,66.80
2018-03-11T06:09:37.216Z,66.80
2018-03-11T06:12:06.289Z,66.60
2018-03-11T06:14:35.380Z,66.60
2018-03-11T06:17:05.210Z,67.70
2018-03-11T06:19:34.297Z,67.70
2018-03-11T06:22:03.397Z,68.60
2018-03-11T06:24:32.470Z,71.20
2018-03-11T06:27:01.533Z,73.40
2018-03-11T06:29:31.393Z,75.40
2018-03-11T06:32:00.473Z,75.40
2018-03-11T06:34:30.330Z,75.80
2018-03-11T06:36:59.502Z,75.70
2018-03-11T06:39:28.570Z,75.70
2018-03-11T06:41:57.626Z,75.80
2018-03-11T06:44:27.457Z,76.40
2018-03-11T06:46:57.285Z,76.60
2018-03-11T06:49:27.102Z,76.70
2018-03-11T06:51:56.174Z,76.60
2018-03-11T06:54:26.006Z,77.40
2018-03-11T06:56:55.078Z,76.60
2018-03-11T06:59:24.411Z,76.70
2018-03-11T07:01:53.475Z,76.90
2018-03-11T07:04:22.541Z,76.70
2018-03-11T07:06:51.608Z,76.50
2018-03-11T07:09:21.438Z,75.70
2018-03-11T07:11:51.265Z,75.30
2018-03-11T07:14:21.090Z,74.80
2018-03-11T07:16:50.970Z,74.40
2018-03-11T07:19:20.038Z,74.30
2018-03-11T07:21:49.153Z,74.20
2018-03-11T07:24:18.218Z,73.60
2018-03-11T07:26:47.278Z,73.90
2018-03-11T07:29:16.392Z,73.40
2018-03-11T07:31:45.452Z,74.20
2018-03-11T07:34:14.517Z,73.00
2018-03-11T07:36:43.586Z,72.60
2018-03-11T07:39:13.425Z,72.40
2018-03-11T07:41:43.258Z,71.90
2018-03-11T07:44:12.321Z,71.90
2018-03-11T07:46:41.392Z,71.20
2018-03-11T07:49:10.453Z,70.80
2018-03-11T07:51:39.518Z,69.70
2018-03-11T07:54:08.631Z,70.50
2018-03-11T07:56:37.694Z,70.50
2018-03-11T07:59:06.818Z,70.40
2018-03-11T08:01:36.654Z,68.90
2018-03-11T08:04:06.510Z,69.50
2018-03-11T08:06:35.576Z,69.40
2018-03-11T08:09:05.474Z,68.80
2018-03-11T08:11:34.571Z,68.70
2018-03-11T08:14:03.629Z,67.60
2018-03-11T08:16:33.462Z,68.70
2018-03-11T08:19:03.294Z,66.70
2018-03-11T08:21:32.362Z,66.60
2018-03-11T08:24:01.426Z,66.10
2018-03-11T08:26:30.496Z,65.80
2018-03-11T08:28:59.573Z,63.50
2018-03-11T08:31:28.853Z,64.00
2018-03-11T08:33:57.930Z,63.60
2018-03-11T08:36:27.769Z,63.80
2018-03-11T08:38:57.745Z,62.30
2018-03-11T08:41:26.826Z,62.30
2018-03-11T08:43:56.062Z,61.80
2018-03-11T08:46:25.143Z,62.20
2018-03-11T08:48:54.246Z,62.10
2018-03-11T08:51:24.207Z,61.40
2018-03-11T08:53:53.396Z,61.50
2018-03-11T08:56:23.260Z,60.60
2018-03-11T08:58:52.342Z,60.60
2018-03-11T09:01:21.422Z,60.80
2018-03-11T09:03:51.275Z,60.70
2018-03-11T09:06:20.401Z,60.10
2018-03-11T09:08:49.483Z,60.10
2018-03-11T09:11:19.335Z,58.90
2018-03-11T09:13:48.441Z,58.90
2018-03-11T09:16:17.554Z,57.70
2018-03-11T09:18:46.637Z,58.00
2018-03-11T09:21:16.482Z,57.60
2018-03-11T09:23:45.570Z,57.60
2018-03-11T09:26:15.422Z,56.60
2018-03-11T09:28:44.511Z,56.50
2018-03-11T09:31:13.597Z,56.60
2018-03-11T09:33:42.680Z,56.60
2018-03-11T09:36:11.765Z,56.00
2018-03-11T09:38:40.849Z,56.10
2018-03-11T09:41:10.699Z,55.50
2018-03-11T09:43:39.789Z,55.50
2018-03-11T09:46:09.658Z,55.60
2018-03-11T09:48:38.743Z,55.50
2018-03-11T09:51:07.884Z,55.50
2018-03-11T09:53:36.966Z,54.30
2018-03-11T09:56:06.081Z,53.80
2018-03-11T09:58:35.635Z,54.10
2018-03-11T10:01:04.725Z,53.90
2018-03-11T10:03:33.852Z,53.70
2018-03-11T10:06:03.701Z,53.80
2018-03-11T10:08:32.816Z,53.80
2018-03-11T10:11:01.935Z,53.30
2018-03-11T10:13:31.016Z,52.60
2018-03-11T10:16:00.099Z,51.90
2018-03-11T10:18:29.177Z,51.50
2018-03-11T10:20:58.253Z,51.60
2018-03-11T10:23:27.330Z,51.00
2018-03-11T10:25:56.411Z,51.10
2018-03-11T10:28:26.282Z,50.40
2018-03-11T10:30:55.370Z,50.40
2018-03-11T10:33:24.552Z,50.00
2018-03-11T10:35:53.674Z,49.40
2018-03-11T10:38:23.567Z,49.50
2018-03-11T10:40:52.650Z,49.40
2018-03-11T10:43:21.734Z,48.50
2018-03-11T10:45:50.826Z,48.30
2018-03-11T10:48:20.777Z,47.00
2018-03-11T10:50:50.677Z,47.00
2018-03-11T10:53:19.750Z,47.00
2018-03-11T10:55:48.819Z,47.10
2018-03-11T10:58:18.658Z,46.60
2018-03-11T11:00:52.566Z,46.60
2018-03-11T11:03:27.931Z,46.50
2018-03-11T11:05:57.766Z,45.60
2018-03-11T11:08:26.854Z,45.50
2018-03-11T11:10:56.702Z,45.60
2018-03-11T11:13:25.786Z,45.60
2018-03-11T11:15:55.633Z,45.60
2018-03-11T11:18:25.469Z,45.70
2018-03-11T11:20:54.565Z,45.70
2018-03-11T11:23:24.409Z,45.30
2018-03-11T11:25:53.538Z,45.30
2018-03-11T11:28:22.607Z,45.70
2018-03-11T11:30:52.442Z,45.30
2018-03-11T11:33:22.278Z,45.50
2018-03-11T11:35:51.350Z,45.50
2018-03-11T11:38:20.420Z,45.20
2018-03-11T11:40:49.565Z,45.90
2018-03-11T11:43:18.651Z,46.00
2018-03-11T11:45:47.849Z,45.50
2018-03-11T11:48:16.930Z,45.50
2018-03-11T11:50:46.802Z,45.80
2018-03-11T11:53:15.887Z,45.70
2018-03-11T11:55:45.034Z,46.30
2018-03-11T11:58:14.109Z,46.30
2018-03-11T12:00:43.988Z,45.90
2018-03-11T12:03:13.067Z,44.90
2018-03-11T12:05:42.141Z,44.70
2018-03-11T12:08:12.030Z,44.40
2018-03-11T12:10:41.114Z,44.40
2018-03-11T12:13:10.200Z,44.50
2018-03-11T12:15:39.278Z,45.00
2018-03-11T12:18:08.357Z,45.40
2018-03-11T12:20:38.198Z,43.90
2018-03-11T12:23:07.271Z,43.70
2018-03-11T12:25:36.338Z,43.40
2018-03-11T12:28:05.415Z,43.40
2018-03-11T12:30:34.541Z,43.50
2018-03-11T12:33:03.622Z,43.60
2018-03-11T12:35:32.689Z,43.20
2018-03-11T12:38:02.526Z,43.80
2018-03-11T12:40:32.399Z,43.60
2018-03-11T12:43:02.238Z,43.10
2018-03-11T12:45:31.322Z,43.10
2018-03-11T12:48:00.472Z,43.10
2018-03-11T12:50:29.551Z,43.50
2018-03-11T12:52:58.627Z,43.50
2018-03-11T12:55:28.489Z,43.40
2018-03-11T12:57:57.509Z,43.40
2018-03-11T13:00:26.610Z,43.30
2018-03-11T13:02:55.647Z,43.40
2018-03-11T13:05:24.671Z,43.40
2018-03-11T13:07:54.514Z,43.30
2018-03-11T13:10:24.302Z,44.00
2018-03-11T13:12:53.333Z,43.90
2018-03-11T13:15:22.354Z,43.50
2018-03-11T13:17:52.143Z,43.40
2018-03-11T13:20:39.226Z,43.40
2018-03-11T13:23:08.291Z,43.30
2018-03-11T13:25:37.387Z,43.40
2018-03-11T13:28:25.068Z,43.30
2018-03-11T13:30:54.117Z,44.10
2018-03-11T13:33:41.201Z,43.50
2018-03-11T13:36:10.402Z,43.60
2018-03-11T13:38:57.367Z,43.00
2018-03-11T13:41:27.226Z,42.90
2018-03-11T13:43:56.254Z,42.90
2018-03-11T13:46:44.139Z,44.20
2018-03-11T13:49:13.170Z,43.50
2018-03-11T13:52:00.243Z,44.20
2018-03-11T13:54:29.282Z,42.90
2018-03-11T13:57:16.294Z,42.80
2018-03-11T13:59:45.362Z,42.30
2018-03-11T14:02:14.438Z,42.10
2018-03-11T14:04:43.506Z,42.30
2018-03-11T14:07:12.599Z,41.00
2018-03-11T14:09:41.707Z,40.90
2018-03-11T14:12:10.770Z,41.30
2018-03-11T14:14:39.846Z,41.40
2018-03-11T14:17:08.906Z,41.60
2018-03-11T14:19:38.166Z,41.80
2018-03-11T14:22:07.290Z,41.90
2018-03-11T14:24:36.326Z,41.00
2018-03-11T14:27:05.394Z,41.20
2018-03-11T14:29:34.606Z,41.50
2018-03-11T14:32:03.671Z,41.50
2018-03-11T14:34:32.741Z,41.90
2018-03-11T14:37:01.808Z,42.20
2018-03-11T14:39:31.898Z,42.60
2018-03-11T14:42:00.986Z,42.50
2018-03-11T14:44:30.076Z,42.20
2018-03-11T14:46:59.169Z,42.40
2018-03-11T14:49:29.136Z,43.10
2018-03-11T14:51:58.231Z,43.00
2018-03-11T14:54:27.357Z,43.00
2018-03-11T14:56:56.434Z,43.60
2018-03-11T14:59:26.317Z,43.50
2018-03-11T15:01:56.159Z,43.50
2018-03-11T15:04:25.258Z,42.90
2018-03-11T15:06:54.361Z,43.30
2018-03-11T15:09:23.434Z,43.30
2018-03-11T15:11:52.582Z,43.30
2018-03-11T15:14:21.699Z,43.60
2018-03-11T15:16:50.777Z,43.60
2018-03-11T15:19:19.901Z,43.60
2018-03-11T15:21:48.990Z,44.00
2018-03-11T15:24:18.098Z,43.80
2018-03-11T15:26:47.161Z,43.90
2018-03-11T15:29:16.234Z,43.60
2018-03-11T15:31:45.331Z,44.00
2018-03-11T15:34:14.421Z,44.10
2018-03-11T15:36:44.294Z,44.30
2018-03-11T15:39:13.365Z,44.20
2018-03-11T15:41:43.197Z,44.70
2018-03-11T15:44:12.262Z,44.70
2018-03-11T15:46:41.334Z,45.10
2018-03-11T15:49:10.414Z,45.20
2018-03-11T15:51:40.246Z,45.60
2018-03-11T15:54:10.083Z,46.00
2018-03-11T15:56:39.150Z,45.90
2018-03-11T15:59:08.226Z,46.10
2018-03-11T16:01:37.310Z,46.20
2018-03-11T16:04:06.541Z,46.40
2018-03-11T16:06:35.662Z,46.60
2018-03-11T16:09:04.774Z,46.90
2018-03-11T16:11:33.867Z,47.00
2018-03-11T16:14:02.944Z,46.90
2018-03-11T16:16:32.946Z,46.90
2018-03-11T16:19:02.016Z,47.60
2018-03-11T16:21:31.084Z,48.00
2018-03-11T16:24:00.186Z,48.10
2018-03-11T16:26:29.257Z,48.00
2018-03-11T16:28:58.408Z,48.40
2018-03-11T16:31:27.494Z,48.60
2018-03-11T16:33:56.594Z,49.20
2018-03-11T16:36:25.677Z,49.40
2018-03-11T16:38:54.759Z,49.70
2018-03-11T16:41:23.860Z,50.00
2018-03-11T16:43:52.934Z,50.20
2018-03-11T16:46:22.034Z,50.50
2018-03-11T16:48:51.104Z,50.40
2018-03-11T16:51:20.204Z,50.40
2018-03-11T16:53:49.348Z,50.70
2018-03-11T16:56:19.185Z,51.20
2018-03-11T16:58:48.256Z,51.20
2018-03-11T17:01:17.406Z,51.50
2018-03-11T17:03:46.470Z,51.50
2018-03-11T17:06:15.541Z,51.50
2018-03-11T17:08:44.612Z,51.80
2018-03-11T17:11:14.510Z,52.20
2018-03-11T17:13:43.578Z,52.20
2018-03-11T17:16:12.709Z,52.40
2018-03-11T17:18:41.818Z,53.20
2018-03-11T17:21:10.922Z,52.70
2018-03-11T17:23:39.990Z,52.60
2018-03-11T17:26:09.852Z,53.00
2018-03-11T17:28:38.929Z,53.10
2018-03-11T17:31:08.845Z,53.70
2018-03-11T17:33:37.922Z,53.60
2018-03-11T17:36:06.997Z,54.20
2018-03-11T17:38:36.114Z,53.50
2018-03-11T17:41:05.193Z,53.80
2018-03-11T17:43:35.061Z,54.30
2018-03-11T17:46:04.146Z,54.30
2018-03-11T17:48:34.078Z,54.50
2018-03-11T17:51:03.161Z,54.40
2018-03-11T17:53:32.278Z,54.60
2018-03-11T17:56:01.352Z,55.00
2018-03-11T17:58:30.431Z,55.40
2018-03-11T18:00:59.514Z,55.80
2018-03-11T18:03:29.721Z,56.90
2018-03-11T18:05:58.803Z,56.90
2018-03-11T18:08:27.920Z,57.10
2018-03-11T18:10:57.010Z,57.10
2018-03-11T18:13:26.150Z,57.00
2018-03-11T18:15:55.237Z,57.50
2018-03-11T18:18:24.331Z,57.80
2018-03-11T18:20:53.474Z,58.00
2018-03-11T18:23:22.558Z,58.00
2018-03-11T18:25:51.708Z,58.20
2018-03-11T18:28:20.798Z,58.10
2018-03-11T18:30:49.882Z,58.90
2018-03-11T18:33:18.998Z,58.40
2018-03-11T18:35:48.160Z,58.70
2018-03-11T18:38:17.248Z,58.50
2018-03-11T18:40:46.326Z,58.70
2018-03-11T18:43:15.410Z,58.40
2018-03-11T18:45:45.254Z,59.60
2018-03-11T18:48:14.338Z,59.40
2018-03-11T18:50:43.422Z,60.00
2018-03-11T18:53:12.505Z,59.90
2018-03-11T18:55:41.590Z,60.20
2018-03-11T18:58:11.439Z,60.80
2018-03-11T19:00:40.518Z,60.80
2018-03-11T19:03:10.486Z,60.60
2018-03-11T19:05:39.561Z,60.50
2018-03-11T19:08:09.443Z,59.90
2018-03-11T19:10:38.521Z,59.80
2018-03-11T19:13:07.627Z,59.70
2018-03-11T19:15:36.742Z,59.80
2018-03-11T19:18:05.883Z,59.70
2018-03-11T19:20:34.935Z,59.70
2018-03-11T19:23:04.786Z,59.80
2018-03-11T19:25:33.861Z,59.80
2018-03-11T19:28:02.938Z,59.80
2018-03-11T19:30:32.011Z,59.90
2018-03-11T19:33:01.888Z,59.80
2018-03-11T19:35:30.988Z,59.80
2018-03-11T19:38:00.066Z,59.50
2018-03-11T19:40:29.211Z,59.30
2018-03-11T19:42:58.294Z,59.30
2018-03-11T19:45:27.366Z,59.00
2018-03-11T19:47:56.490Z,59.00
2018-03-11T19:50:26.331Z,59.20
2018-03-11T19:52:55.408Z,59.20
2018-03-11T19:55:24.493Z,59.20
2018-03-11T19:57:53.566Z,59.00
2018-03-11T20:00:22.634Z,58.90
2018-03-11T20:02:51.711Z,59.10
2018-03-11T20:05:20.786Z,59.70
2018-03-11T20:07:50.630Z,59.40
2018-03-11T20:10:19.763Z,59.40
2018-03-11T20:12:48.917Z,59.40
2018-03-11T20:15:17.990Z,59.40
2018-03-11T20:17:47.061Z,59.40
2018-03-11T20:20:16.199Z,59.20
2018-03-11T20:22:45.266Z,60.20
2018-03-11T20:25:15.146Z,60.60
2018-03-11T20:27:44.227Z,60.60
2018-03-11T20:30:13.350Z,60.70
2018-03-11T20:32:42.414Z,60.90
2018-03-11T20:35:11.479Z,61.10
2018-03-11T20:37:40.583Z,61.10
2018-03-11T20:40:09.647Z,61.00
2018-03-11T20:42:38.713Z,61.00
2018-03-11T20:45:07.774Z,61.00
2018-03-11T20:47:37.614Z,61.60
2018-03-11T20:50:07.446Z,61.90
2018-03-11T20:52:37.353Z,62.10
2018-03-11T20:55:06.413Z,62.10
2018-03-11T20:57:35.473Z,61.90
2018-03-11T21:00:04.545Z,61.70
2018-03-11T21:02:33.634Z,62.20
2018-03-11T21:05:02.703Z,62.30
2018-03-11T21:07:32.593Z,62.70
2018-03-11T21:10:01.657Z,62.10
2018-03-11T21:12:31.597Z,61.60
2018-03-11T21:15:00.663Z,61.60
2018-03-11T21:17:29.731Z,61.60
2018-03-11T21:19:58.829Z,62.10
2018-03-11T21:22:27.897Z,62.50
2018-03-11T21:24:56.959Z,62.60
2018-03-11T21:27:26.277Z,62.90
2018-03-11T21:29:55.338Z,62.80
2018-03-11T21:32:24.410Z,63.00
2018-03-11T21:34:53.469Z,62.90
2018-03-11T21:37:23.298Z,62.70
2018-03-11T21:39:53.129Z,62.80
2018-03-11T21:42:22.960Z,62.70
2018-03-11T21:44:52.785Z,62.80
2018-03-11T21:47:22.609Z,62.50
2018-03-11T21:49:52.438Z,62.50
2018-03-11T21:52:22.265Z,62.40
2018-03-11T21:54:52.090Z,62.60
2018-03-11T21:57:21.918Z,62.50
2018-03-11T21:59:51.746Z,62.00
2018-03-11T22:02:21.578Z,62.50
2018-03-11T22:04:51.450Z,62.90
2018-03-11T22:07:20.514Z,62.80
2018-03-11T22:09:50.342Z,63.10
2018-03-11T22:12:20.171Z,64.20
2018-03-11T22:14:50.002Z,63.50
2018-03-11T22:17:19.927Z,63.80
2018-03-11T22:19:49.755Z,63.70
2018-03-11T22:22:19.582Z,63.40
2018-03-11T22:24:49.446Z,63.20
2018-03-11T22:27:18.509Z,63.20
2018-03-11T22:29:47.603Z,63.70
2018-03-11T22:32:16.672Z,63.10
2018-03-11T22:34:47.537Z,63.30
2018-03-11T22:37:16.605Z,63.30
2018-03-11T22:39:46.482Z,63.30
2018-03-11T22:42:16.314Z,63.50
2018-03-11T22:44:45.377Z,63.50
2018-03-11T22:47:14.507Z,63.40
2018-03-11T22:49:43.570Z,63.20
2018-03-11T22:52:12.699Z,63.10
2018-03-11T22:54:42.533Z,64.60
2018-03-11T22:57:12.366Z,64.60
2018-03-11T22:59:41.457Z,64.60
2018-03-11T23:02:11.318Z,64.00
2018-03-11T23:04:40.378Z,64.00
2018-03-11T23:07:09.469Z,64.60
2018-03-11T23:09:38.638Z,64.70
2018-03-11T23:12:07.702Z,64.70
2018-03-11T23:14:36.762Z,64.40
2018-03-11T23:17:05.835Z,64.70
2018-03-11T23:19:34.931Z,63.90
2018-03-11T23:22:04.022Z,64.40
2018-03-11T23:24:33.126Z,64.40
2018-03-11T23:27:02.190Z,64.50
2018-03-11T23:29:32.018Z,64.40
2018-03-11T23:32:01.883Z,64.00
2018-03-11T23:34:30.946Z,64.00
2018-03-11T23:37:00.109Z,64.00
2018-03-11T23:39:29.194Z,64.20
2018-03-11T23:41:58.305Z,66.20
2018-03-11T23:44:27.367Z,66.60
2018-03-11T23:46:56.429Z,65.90
2018-03-11T23:49:25.775Z,65.90
2018-03-11T23:51:54.840Z,65.50
2018-03-11T23:54:24.665Z,65.30
2018-03-11T23:56:54.566Z,64.30
2018-03-11T23:59:23.825Z,64.20
